createdAt,value
2023-02-11T00:01:32.049Z,101590.78
2023-02-11T00:04:01.988Z,101590.91
2023-02-11T00:06:31.044Z,101583.78
2023-02-11T00:08:59.074Z,101588.19
2023-02-11T00:11:30.228Z,101585.50
2023-02-11T00:13:58.962Z,101586.38
2023-02-11T00:16:26.537Z,101576.59
2023-02-11T00:18:54.104Z,101570.41
2023-02-11T00:21:26.419Z,101566.88
2023-02-11T00:23:57.030Z,101555.38
2023-02-11T00:26:27.808Z,101563.38
2023-02-11T00:28:56.948Z,101565.22
2023-02-11T00:31:25.260Z,101564.31
2023-02-11T00:33:53.144Z,101560.78
2023-02-11T00:36:24.328Z,101557.22
2023-02-11T00:38:53.021Z,101551.03
2023-02-11T00:41:21.968Z,101553.63
2023-02-11T00:43:50.132Z,101554.56
2023-02-11T00:46:17.652Z,101562.47
2023-02-11T00:48:45.272Z,101570.47
2023-02-11T00:51:13.316Z,101571.38
2023-02-11T00:53:42.220Z,101576.63
2023-02-11T00:56:10.389Z,101558.94
2023-02-11T00:58:38.286Z,101559.84
2023-02-11T01:01:05.841Z,101558.91
2023-02-11T01:03:33.514Z,101548.34
2023-02-11T01:06:01.239Z,101541.25
2023-02-11T01:08:28.836Z,101549.19
2023-02-11T01:10:59.423Z,101550.16
2023-02-11T01:13:27.765Z,101549.22
2023-02-11T01:15:55.371Z,101554.47
2023-02-11T01:18:23.007Z,101558.94
2023-02-11T01:20:51.898Z,101558.03
2023-02-11T01:23:19.485Z,101559.88
2023-02-11T01:25:47.439Z,101562.47
2023-02-11T01:28:19.594Z,101567.84
2023-02-11T01:30:47.663Z,101566.06
2023-02-11T01:33:15.300Z,101558.91
2023-02-11T01:35:43.495Z,101553.69
2023-02-11T01:38:17.169Z,101552.81
2023-02-11T01:40:48.606Z,101560.69
2023-02-11T01:43:16.090Z,101571.38
2023-02-11T01:45:58.436Z,101581.94
2023-02-11T01:48:30.767Z,101586.34
2023-02-11T01:51:03.784Z,101585.50
2023-02-11T01:53:50.739Z,101582.78
2023-02-11T01:56:38.974Z,101568.66
2023-02-11T01:59:12.392Z,101557.22
2023-02-11T02:01:44.885Z,101553.78
2023-02-11T02:04:14.003Z,101541.34
2023-02-11T02:06:46.821Z,101534.16
2023-02-11T02:09:21.311Z,101538.69
2023-02-11T02:11:48.908Z,101546.59
2023-02-11T02:14:16.378Z,101528.94
2023-02-11T02:16:45.716Z,101542.16
2023-02-11T02:19:41.734Z,101543.00
2023-02-11T02:22:35.435Z,101541.25
2023-02-11T02:25:28.875Z,101527.97
2023-02-11T02:28:12.954Z,101515.66
2023-02-11T02:30:54.137Z,101497.16
2023-02-11T02:33:31.591Z,101500.75
2023-02-11T02:36:09.972Z,101495.44
2023-02-11T02:38:42.939Z,101497.19
2023-02-11T02:41:13.943Z,101494.47
2023-02-11T02:43:45.071Z,101492.81
2023-02-11T02:46:16.766Z,101488.53
2023-02-11T02:48:46.368Z,101489.44
2023-02-11T02:51:47.632Z,101514.19
2023-02-11T02:54:44.753Z,101518.59
2023-02-11T02:57:24.600Z,101508.88
2023-02-11T03:00:07.211Z,101499.13
2023-02-11T03:02:41.316Z,101499.94
2023-02-11T03:05:17.016Z,101492.84
2023-02-11T03:07:51.753Z,101500.81
2023-02-11T03:10:24.371Z,101500.03
2023-02-11T03:12:55.224Z,101503.53
2023-02-11T03:15:24.741Z,101494.63
2023-02-11T03:17:55.419Z,101494.53
2023-02-11T03:20:24.719Z,101498.13
2023-02-11T03:22:59.034Z,101498.13
2023-02-11T03:25:31.126Z,101495.44
2023-02-11T03:28:06.342Z,101503.44
2023-02-11T03:30:37.005Z,101505.19
2023-02-11T03:33:09.902Z,101507.88
2023-02-11T03:35:43.338Z,101512.25
2023-02-11T03:38:17.497Z,101509.72
2023-02-11T03:40:46.452Z,101499.03
2023-02-11T03:43:18.028Z,101495.50
2023-02-11T03:45:48.372Z,101491.06
2023-02-11T03:48:20.858Z,101490.22
2023-02-11T03:50:53.120Z,101487.69
2023-02-11T03:53:22.609Z,101487.59
2023-02-11T03:55:52.803Z,101489.25
2023-02-11T03:58:20.558Z,101489.28
2023-02-11T04:00:48.068Z,101490.16
2023-02-11T04:03:15.607Z,101490.06
2023-02-11T04:05:43.150Z,101490.13
2023-02-11T04:08:12.068Z,101490.06
2023-02-11T04:10:39.545Z,101495.34
2023-02-11T04:13:07.038Z,101494.41
2023-02-11T04:15:34.539Z,101498.81
2023-02-11T04:18:03.239Z,101502.44
2023-02-11T04:20:30.735Z,101501.50
2023-02-11T04:22:58.194Z,101500.59
2023-02-11T04:25:27.177Z,101485.59
2023-02-11T04:27:54.799Z,101501.56
2023-02-11T04:30:22.694Z,101490.28
2023-02-11T04:32:50.138Z,101497.28
2023-02-11T04:35:17.693Z,101488.31
2023-02-11T04:37:45.151Z,101486.59
2023-02-11T04:40:12.957Z,101496.31
2023-02-11T04:42:41.806Z,101506.00
2023-02-11T04:45:10.063Z,101516.56
2023-02-11T04:47:37.890Z,101524.53
2023-02-11T04:50:06.140Z,101527.19
2023-02-11T04:52:33.611Z,101512.16
2023-02-11T04:55:01.087Z,101502.47
2023-02-11T04:57:28.666Z,101507.88
2023-02-11T04:59:57.457Z,101502.59
2023-02-11T05:02:24.968Z,101496.28
2023-02-11T05:04:52.402Z,101498.09
2023-02-11T05:07:19.900Z,101499.78
2023-02-11T05:09:47.375Z,101499.78
2023-02-11T05:12:15.850Z,101497.97
2023-02-11T05:14:43.336Z,101508.63
2023-02-11T05:17:12.258Z,101503.25
2023-02-11T05:19:39.726Z,101502.47
2023-02-11T05:22:07.196Z,101504.19
2023-02-11T05:24:35.042Z,101500.75
2023-02-11T05:27:03.567Z,101501.56
2023-02-11T05:29:31.311Z,101494.56
2023-02-11T05:31:59.956Z,101492.03
2023-02-11T05:34:28.846Z,101493.84
2023-02-11T05:36:56.385Z,101485.91
2023-02-11T05:39:23.877Z,101493.91
2023-02-11T05:41:51.402Z,101493.88
2023-02-11T05:44:18.846Z,101494.75
2023-02-11T05:46:46.447Z,101485.91
2023-02-11T05:49:13.940Z,101487.66
2023-02-11T05:51:42.768Z,101491.13
2023-02-11T05:54:10.439Z,101487.63
2023-02-11T05:56:37.937Z,101488.53
2023-02-11T05:59:05.528Z,101492.03
2023-02-11T06:01:33.079Z,101484.16
2023-02-11T06:04:00.626Z,101489.38
2023-02-11T06:06:28.182Z,101492.03
2023-02-11T06:08:56.996Z,101486.72
2023-02-11T06:11:24.505Z,101496.44
2023-02-11T06:13:52.030Z,101497.38
2023-02-11T06:16:19.527Z,101496.44
2023-02-11T06:18:46.982Z,101486.69
2023-02-11T06:21:14.678Z,101491.19
2023-02-11T06:23:43.039Z,101490.19
2023-02-11T06:26:18.581Z,101488.44
2023-02-11T06:28:46.190Z,101498.22
2023-02-11T06:31:14.339Z,101497.31
2023-02-11T06:33:41.953Z,101493.75
2023-02-11T06:36:15.043Z,101485.81
2023-02-11T06:38:42.917Z,101486.59
2023-02-11T06:41:12.733Z,101489.13
2023-02-11T06:43:41.243Z,101488.31
2023-02-11T06:46:10.268Z,101492.72
2023-02-11T06:48:37.800Z,101500.69
2023-02-11T06:51:09.674Z,101495.34
2023-02-11T06:53:38.924Z,101502.41
2023-02-11T06:56:07.963Z,101504.25
2023-02-11T06:58:37.549Z,101500.63
2023-02-11T07:01:07.122Z,101509.44
2023-02-11T07:03:36.064Z,101508.56
2023-02-11T07:06:04.462Z,101509.53
2023-02-11T07:08:32.180Z,101513.94
2023-02-11T07:10:59.671Z,101507.91
2023-02-11T07:13:27.220Z,101517.47
2023-02-11T07:15:56.072Z,101518.31
2023-02-11T07:18:23.551Z,101517.53
2023-02-11T07:20:51.003Z,101512.22
2023-02-11T07:23:18.439Z,101507.00
2023-02-11T07:25:45.876Z,101510.50
2023-02-11T07:28:13.371Z,101519.31
2023-02-11T07:30:40.873Z,101518.44
2023-02-11T07:33:09.690Z,101523.75
2023-02-11T07:35:37.138Z,101526.38
2023-02-11T07:38:04.703Z,101528.06
2023-02-11T07:40:32.152Z,101522.84
2023-02-11T07:43:01.596Z,101534.28
2023-02-11T07:45:29.164Z,101534.19
2023-02-11T07:47:56.646Z,101536.06
2023-02-11T07:50:25.464Z,101528.28
2023-02-11T07:52:52.956Z,101525.56
2023-02-11T07:55:20.447Z,101521.22
2023-02-11T07:57:47.905Z,101530.91
2023-02-11T08:00:18.847Z,101517.66
2023-02-11T08:02:48.229Z,101519.44
2023-02-11T08:05:15.839Z,101523.94
2023-02-11T08:07:44.683Z,101530.06
2023-02-11T08:10:12.304Z,101529.97
2023-02-11T08:12:39.788Z,101537.94
2023-02-11T08:15:07.707Z,101545.03
2023-02-11T08:17:36.386Z,101530.91
2023-02-11T08:20:04.541Z,101541.38
2023-02-11T08:22:32.545Z,101534.31
2023-02-11T08:25:01.491Z,101542.31
2023-02-11T08:27:29.298Z,101554.72
2023-02-11T08:29:57.034Z,101556.41
2023-02-11T08:32:25.408Z,101561.75
2023-02-11T08:34:53.066Z,101558.19
2023-02-11T08:37:22.662Z,101561.66
2023-02-11T08:39:50.116Z,101569.69
2023-02-11T08:42:18.909Z,101573.13
2023-02-11T08:44:46.631Z,101565.16
2023-02-11T08:47:14.077Z,101566.94
2023-02-11T08:49:42.283Z,101565.13
2023-02-11T08:52:09.762Z,101565.97
2023-02-11T08:54:38.083Z,101569.44
2023-02-11T08:57:06.105Z,101574.72
2023-02-11T08:59:34.956Z,101577.41
2023-02-11T09:02:02.431Z,101573.00
2023-02-11T09:04:29.921Z,101579.13
2023-02-11T09:06:57.934Z,101579.25
2023-02-11T09:09:25.387Z,101587.34
2023-02-11T09:11:57.077Z,101590.75
2023-02-11T09:14:25.583Z,101593.41
2023-02-11T09:16:54.811Z,101595.13
2023-02-11T09:19:22.949Z,101597.72
2023-02-11T09:21:50.684Z,101602.94
2023-02-11T09:24:18.372Z,101608.19
2023-02-11T09:26:45.814Z,101606.34
2023-02-11T09:29:13.631Z,101598.50
2023-02-11T09:31:41.302Z,101604.66
2023-02-11T09:34:12.306Z,101602.03
2023-02-11T09:36:41.446Z,101602.03
2023-02-11T09:39:12.477Z,101609.97
2023-02-11T09:42:00.563Z,101617.88
2023-02-11T09:44:30.478Z,101609.13
2023-02-11T09:47:01.426Z,101619.78
2023-02-11T09:49:37.833Z,101629.44
2023-02-11T09:52:09.072Z,101619.69
2023-02-11T09:54:41.346Z,101625.03
2023-02-11T09:57:22.911Z,101631.16
2023-02-11T09:59:55.422Z,101632.00
2023-02-11T10:02:29.855Z,101633.81
2023-02-11T10:05:19.644Z,101634.59
2023-02-11T10:07:53.361Z,101639.94
2023-02-11T10:10:38.566Z,101635.50
2023-02-11T10:13:37.358Z,101635.41
2023-02-11T10:16:17.907Z,101634.44
2023-02-11T10:19:05.173Z,101637.03
2023-02-11T10:21:41.515Z,101638.84
2023-02-11T10:24:13.390Z,101643.38
2023-02-11T10:26:41.727Z,101649.50
2023-02-11T10:29:19.770Z,101650.47
2023-02-11T10:31:48.221Z,101649.56
2023-02-11T10:34:16.399Z,101651.38
2023-02-11T10:36:46.387Z,101647.75
2023-02-11T10:39:16.138Z,101647.81
2023-02-11T10:41:46.572Z,101640.59
2023-02-11T10:44:26.576Z,101658.16
2023-02-11T10:46:56.429Z,101652.03
2023-02-11T10:49:39.371Z,101652.03
2023-02-11T10:52:16.880Z,101660.00
2023-02-11T10:54:56.890Z,101657.22
2023-02-11T10:57:29.053Z,101654.56
2023-02-11T11:00:00.495Z,101654.50
2023-02-11T11:02:34.306Z,101649.16
2023-02-11T11:05:04.339Z,101652.88
2023-02-11T11:07:34.921Z,101658.97
2023-02-11T11:10:05.207Z,101663.34
2023-02-11T11:12:47.468Z,101666.91
2023-02-11T11:15:18.767Z,101674.09
2023-02-11T11:17:46.761Z,101673.31
2023-02-11T11:20:23.061Z,101676.69
2023-02-11T11:22:55.499Z,101680.19
2023-02-11T11:25:26.577Z,101681.13
2023-02-11T11:27:56.693Z,101681.97
2023-02-11T11:30:28.472Z,101676.81
2023-02-11T11:32:56.470Z,101675.13
2023-02-11T11:35:27.197Z,101669.72
2023-02-11T11:38:01.661Z,101672.38
2023-02-11T11:40:31.684Z,101674.03
2023-02-11T11:43:14.486Z,101676.78
2023-02-11T11:45:54.632Z,101668.75
2023-02-11T11:48:25.767Z,101667.94
2023-02-11T11:50:55.792Z,101675.03
2023-02-11T11:53:34.179Z,101665.22
2023-02-11T11:56:04.618Z,101660.91
2023-02-11T11:58:33.037Z,101665.22
2023-02-11T12:01:16.595Z,101669.75
2023-02-11T12:04:10.661Z,101670.41
2023-02-11T12:06:51.681Z,101665.09
2023-02-11T12:09:31.303Z,101649.13
2023-02-11T12:12:16.046Z,101653.56
2023-02-11T12:14:54.026Z,101652.69
2023-02-11T12:17:32.482Z,101641.19
2023-02-11T12:20:14.018Z,101640.28
2023-02-11T12:22:54.355Z,101642.94
2023-02-11T12:25:28.082Z,101643.09
2023-02-11T12:28:05.862Z,101638.44
2023-02-11T12:30:59.417Z,101638.44
2023-02-11T12:33:40.915Z,101643.78
2023-02-11T12:36:16.627Z,101637.50
2023-02-11T12:39:01.119Z,101639.38
2023-02-11T12:42:02.432Z,101632.19
2023-02-11T12:44:41.522Z,101627.69
2023-02-11T12:47:21.775Z,101627.75
2023-02-11T12:50:02.960Z,101638.31
2023-02-11T12:52:51.346Z,101653.50
2023-02-11T12:55:23.588Z,101651.69
2023-02-11T12:57:56.712Z,101650.94
2023-02-11T13:00:26.330Z,101650.88
2023-02-11T13:03:00.956Z,101647.28
2023-02-11T13:05:32.920Z,101643.84
2023-02-11T13:08:05.492Z,101634.06
2023-02-11T13:10:35.785Z,101635.75
2023-02-11T13:13:17.399Z,101636.59
2023-02-11T13:15:47.888Z,101640.22
2023-02-11T13:18:26.104Z,101636.56
2023-02-11T13:21:00.348Z,101642.66
2023-02-11T13:23:41.578Z,101633.06
2023-02-11T13:26:18.233Z,101639.31
2023-02-11T13:28:52.861Z,101636.59
2023-02-11T13:31:20.910Z,101635.75
2023-02-11T13:33:50.429Z,101633.03
2023-02-11T13:36:20.950Z,101631.09
2023-02-11T13:39:03.507Z,101630.34
2023-02-11T13:41:37.631Z,101628.50
2023-02-11T13:44:23.149Z,101630.34
2023-02-11T13:46:57.255Z,101630.28
2023-02-11T13:49:30.732Z,101639.06
2023-02-11T13:51:59.817Z,101635.56
2023-02-11T13:54:31.678Z,101630.41
2023-02-11T13:57:33.562Z,101631.44
2023-02-11T14:00:09.529Z,101635.03
2023-02-11T14:02:55.737Z,101637.53
2023-02-11T14:05:47.072Z,101632.22
2023-02-11T14:08:39.575Z,101647.38
2023-02-11T14:11:12.191Z,101644.69
2023-02-11T14:14:14.986Z,101646.47
2023-02-11T14:17:12.308Z,101649.94
2023-02-11T14:19:43.991Z,101653.38
2023-02-11T14:22:16.433Z,101661.25
2023-02-11T14:24:51.864Z,101656.00
2023-02-11T14:27:29.527Z,101664.13
2023-02-11T14:30:21.054Z,101658.72
2023-02-11T14:33:05.199Z,101656.06
2023-02-11T14:35:41.883Z,101645.44
2023-02-11T14:38:21.130Z,101646.28
2023-02-11T14:40:55.893Z,101648.03
2023-02-11T14:43:29.533Z,101641.88
2023-02-11T14:45:59.484Z,101647.97
2023-02-11T14:48:31.318Z,101647.81
2023-02-11T14:51:04.273Z,101645.88
2023-02-11T14:53:34.107Z,101638.72
2023-02-11T14:56:01.747Z,101636.03
2023-02-11T14:58:30.889Z,101641.19
2023-02-11T15:01:00.750Z,101638.78
2023-02-11T15:03:31.398Z,101641.47
2023-02-11T15:06:02.696Z,101639.56
2023-02-11T15:08:31.742Z,101637.84
2023-02-11T15:11:01.798Z,101651.06
2023-02-11T15:13:32.219Z,101639.50
2023-02-11T15:16:03.313Z,101643.88
2023-02-11T15:18:38.235Z,101650.22
2023-02-11T15:21:08.204Z,101648.53
2023-02-11T15:23:36.229Z,101648.53
2023-02-11T15:26:13.008Z,101652.00
2023-02-11T15:28:52.407Z,101643.22
2023-02-11T15:31:23.088Z,101650.25
2023-02-11T15:33:51.433Z,101654.66
2023-02-11T15:36:24.368Z,101654.50
2023-02-11T15:39:17.002Z,101663.38
2023-02-11T15:41:45.269Z,101664.22
2023-02-11T15:44:28.433Z,101660.56
2023-02-11T15:46:56.232Z,101663.28
2023-02-11T15:49:25.396Z,101672.22
2023-02-11T15:51:56.834Z,101670.34
2023-02-11T15:54:27.269Z,101670.44
2023-02-11T15:56:59.851Z,101670.34
2023-02-11T15:59:31.516Z,101666.78
2023-02-11T16:02:06.475Z,101667.66
2023-02-11T16:04:34.175Z,101669.47
2023-02-11T16:07:03.052Z,101668.53
2023-02-11T16:09:35.565Z,101672.00
2023-02-11T16:12:07.340Z,101675.63
2023-02-11T16:14:39.017Z,101680.22
2023-02-11T16:17:10.228Z,101678.53
2023-02-11T16:19:43.706Z,101684.56
2023-02-11T16:22:18.441Z,101682.94
2023-02-11T16:24:49.188Z,101690.06
2023-02-11T16:27:23.249Z,101684.84
2023-02-11T16:29:51.804Z,101689.13
2023-02-11T16:32:21.304Z,101698.06
2023-02-11T16:34:49.214Z,101706.03
2023-02-11T16:37:18.066Z,101705.09
2023-02-11T16:39:45.715Z,101711.38
2023-02-11T16:42:13.676Z,101705.16
2023-02-11T16:44:41.163Z,101706.19
2023-02-11T16:47:18.259Z,101712.38
2023-02-11T16:49:45.786Z,101706.13
2023-02-11T16:52:15.371Z,101708.75
2023-02-11T16:54:44.696Z,101709.66
2023-02-11T16:57:15.600Z,101707.81
2023-02-11T16:59:43.234Z,101707.00
2023-02-11T17:02:16.635Z,101711.44
2023-02-11T17:04:44.919Z,101710.50
2023-02-11T17:07:12.946Z,101714.06
2023-02-11T17:09:40.613Z,101729.09
2023-02-11T17:12:09.500Z,101730.91
2023-02-11T17:14:36.978Z,101730.91
2023-02-11T17:17:05.281Z,101719.44
2023-02-11T17:19:32.729Z,101721.13
2023-02-11T17:22:00.187Z,101715.88
2023-02-11T17:24:27.668Z,101718.50
2023-02-11T17:26:55.697Z,101721.25
2023-02-11T17:29:27.064Z,101712.41
2023-02-11T17:31:54.931Z,101708.88
2023-02-11T17:34:23.688Z,101723.06
2023-02-11T17:36:51.709Z,101723.00
2023-02-11T17:39:20.881Z,101710.63
2023-02-11T17:41:48.372Z,101713.25
2023-02-11T17:44:16.278Z,101726.53
2023-02-11T17:46:45.201Z,101736.28
2023-02-11T17:49:13.015Z,101731.81
2023-02-11T17:51:41.306Z,101737.13
2023-02-11T17:54:13.174Z,101738.91
2023-02-11T17:56:40.811Z,101746.91
2023-02-11T17:59:10.057Z,101736.22
2023-02-11T18:01:39.030Z,101742.38
2023-02-11T18:04:09.377Z,101759.38
2023-02-11T18:06:37.343Z,101763.78
2023-02-11T18:09:04.904Z,101773.44
2023-02-11T18:11:34.959Z,101772.56
2023-02-11T18:14:03.328Z,101780.47
2023-02-11T18:16:31.450Z,101777.84
2023-02-11T18:18:59.800Z,101777.84
2023-02-11T18:21:28.681Z,101778.75
2023-02-11T18:23:56.874Z,101785.91
2023-02-11T18:26:27.902Z,101790.47
2023-02-11T18:28:57.457Z,101800.19
2023-02-11T18:31:25.345Z,101801.94
2023-02-11T18:33:53.542Z,101790.38
2023-02-11T18:36:22.006Z,101793.97
2023-02-11T18:38:52.488Z,101782.44
2023-02-11T18:41:20.039Z,101794.00
2023-02-11T18:43:47.519Z,101790.41
2023-02-11T18:46:16.081Z,101789.53
2023-02-11T18:48:44.788Z,101786.00
2023-02-11T18:51:14.610Z,101781.59
2023-02-11T18:53:42.298Z,101785.13
2023-02-11T18:56:14.586Z,101787.72
2023-02-11T18:58:42.122Z,101797.50
2023-02-11T19:01:15.025Z,101799.25
2023-02-11T19:03:42.865Z,101801.88
2023-02-11T19:06:15.421Z,101801.88
2023-02-11T19:08:42.935Z,101802.75
2023-02-11T19:11:11.747Z,101807.16
2023-02-11T19:13:39.563Z,101803.66
2023-02-11T19:16:11.220Z,101816.03
2023-02-11T19:18:39.552Z,101817.72
2023-02-11T19:21:08.518Z,101826.72
2023-02-11T19:23:37.827Z,101819.63
2023-02-11T19:26:06.331Z,101823.19
2023-02-11T19:28:36.900Z,101821.34
2023-02-11T19:31:08.637Z,101822.28
2023-02-11T19:33:36.411Z,101826.75
2023-02-11T19:36:06.119Z,101820.53
2023-02-11T19:38:33.614Z,101821.47
2023-02-11T19:41:01.232Z,101830.25
2023-02-11T19:43:29.161Z,101832.91
2023-02-11T19:45:58.419Z,101827.56
2023-02-11T19:48:26.133Z,101832.00
2023-02-11T19:50:54.488Z,101832.00
2023-02-11T19:53:22.060Z,101839.03
2023-02-11T19:55:50.116Z,101840.78
2023-02-11T19:58:18.528Z,101840.78
2023-02-11T20:00:46.184Z,101845.22
2023-02-11T20:03:14.991Z,101850.56
2023-02-11T20:05:46.937Z,101849.66
2023-02-11T20:08:16.877Z,101856.78
2023-02-11T20:10:44.396Z,101860.28
2023-02-11T20:13:11.839Z,101864.72
2023-02-11T20:15:39.441Z,101864.69
2023-02-11T20:18:06.994Z,101862.91
2023-02-11T20:20:37.267Z,101853.16
2023-02-11T20:23:05.041Z,101856.84
2023-02-11T20:25:32.477Z,101853.22
2023-02-11T20:28:00.001Z,101859.44
2023-02-11T20:30:27.513Z,101862.06
2023-02-11T20:32:54.959Z,101862.06
2023-02-11T20:35:22.436Z,101874.44
2023-02-11T20:37:51.688Z,101866.44
2023-02-11T20:40:19.565Z,101866.41
2023-02-11T20:42:47.034Z,101860.19
2023-02-11T20:45:14.524Z,101859.38
2023-02-11T20:47:42.325Z,101868.22
2023-02-11T20:50:10.664Z,101866.34
2023-02-11T20:52:38.312Z,101871.69
2023-02-11T20:55:07.328Z,101882.31
2023-02-11T20:57:35.465Z,101883.22
2023-02-11T21:00:03.170Z,101885.81
2023-02-11T21:02:31.048Z,101878.78
2023-02-11T21:04:58.493Z,101883.25
2023-02-11T21:07:29.066Z,101878.75
2023-02-11T21:09:56.752Z,101885.81
2023-02-11T21:12:25.553Z,101884.97
2023-02-11T21:14:54.785Z,101890.22
2023-02-11T21:17:22.339Z,101892.03
2023-02-11T21:19:49.821Z,101892.03
2023-02-11T21:22:17.280Z,101892.94
2023-02-11T21:24:44.736Z,101889.38
2023-02-11T21:27:12.201Z,101898.25
2023-02-11T21:29:53.462Z,101899.13
2023-02-11T21:32:21.864Z,101895.59
2023-02-11T21:34:49.429Z,101898.25
2023-02-11T21:37:16.925Z,101899.25
2023-02-11T21:39:44.400Z,101896.53
2023-02-11T21:42:11.910Z,101899.19
2023-02-11T21:44:40.679Z,101896.47
2023-02-11T21:47:08.117Z,101905.38
2023-02-11T21:49:35.587Z,101899.13
2023-02-11T21:52:03.039Z,101902.72
2023-02-11T21:54:31.976Z,101900.03
2023-02-11T21:56:59.634Z,101898.28
2023-02-11T21:59:29.158Z,101900.88
2023-02-11T22:01:58.667Z,101903.53
2023-02-11T22:04:26.466Z,101908.00
2023-02-11T22:06:53.992Z,101899.16
2023-02-11T22:09:21.448Z,101896.47
2023-02-11T22:11:49.723Z,101898.25
2023-02-11T22:14:17.439Z,101892.94
2023-02-11T22:16:46.154Z,101891.25
2023-02-11T22:19:15.388Z,101896.56
2023-02-11T22:21:43.574Z,101893.97
2023-02-11T22:24:11.148Z,101899.31
2023-02-11T22:26:39.227Z,101902.81
2023-02-11T22:29:06.702Z,101908.13
2023-02-11T22:31:35.563Z,101907.22
2023-02-11T22:34:04.596Z,101909.88
2023-02-11T22:36:35.088Z,101911.63
2023-02-11T22:39:04.533Z,101911.72
2023-02-11T22:41:32.705Z,101914.41
2023-02-11T22:44:00.186Z,101913.50
2023-02-11T22:46:27.847Z,101921.44
2023-02-11T22:48:55.354Z,101914.34
2023-02-11T22:51:24.882Z,101922.34
2023-02-11T22:53:55.420Z,101918.78
2023-02-11T22:56:23.894Z,101921.38
2023-02-11T22:58:52.153Z,101932.91
2023-02-11T23:01:20.439Z,101939.09
2023-02-11T23:03:47.916Z,101934.63
2023-02-11T23:06:15.504Z,101933.72
2023-02-11T23:08:43.751Z,101939.03
2023-02-11T23:11:15.714Z,101947.00
2023-02-11T23:13:44.427Z,101949.66
2023-02-11T23:16:14.409Z,101953.22
2023-02-11T23:18:43.623Z,101948.75
2023-02-11T23:21:13.393Z,101960.28
2023-02-11T23:23:40.952Z,101954.97
2023-02-11T23:26:12.205Z,101957.63
2023-02-11T23:28:40.591Z,101956.75
2023-02-11T23:31:18.273Z,101960.28
2023-02-11T23:33:46.883Z,101957.63
2023-02-11T23:36:14.732Z,101970.03
2023-02-11T23:38:42.285Z,101957.63
2023-02-11T23:41:10.323Z,101967.38
2023-02-11T23:43:39.512Z,101963.78
2023-02-11T23:46:07.873Z,101970.03
2023-02-11T23:48:35.862Z,101968.25
2023-02-11T23:51:03.388Z,101966.50
2023-02-11T23:53:31.062Z,101974.47
2023-02-11T23:55:58.643Z,101972.69
2023-02-11T23:58:26.236Z,101967.38
